sensor_id;sensor_type;location;lat;lon;timestamp;pressure;altitude;pressure_sealevel;temperature;humidity
49216;BME280;45943;53.148;8.204;2023-12-07T00:02:16;101840.28;;;5.95;100.00
49216;BME280;45943;53.148;8.204;2023-12-07T00:04:42;101838.41;;;5.97;100.00
49216;BME280;45943;53.148;8.204;2023-12-07T00:07:08;101834.97;;;5.95;100.00
49216;BME280;45943;53.148;8.204;2023-12-07T00:09:34;101837.47;;;5.98;100.00
49216;BME280;45943;53.148;8.204;2023-12-07T00:12:00;101833.09;;;5.97;100.00
49216;BME280;45943;53.148;8.204;2023-12-07T00:14:26;101831.28;;;5.98;100.00
49216;BME280;45943;53.148;8.204;2023-12-07T00:16:52;101841.16;;;5.96;100.00
49216;BME280;45943;53.148;8.204;2023-12-07T00:19:19;101839.41;;;5.95;100.00
49216;BME280;45943;53.148;8.204;2023-12-07T00:21:45;101836.91;;;5.92;100.00
49216;BME280;45943;53.148;8.204;2023-12-07T00:24:11;101843.09;;;5.92;100.00
49216;BME280;45943;53.148;8.204;2023-12-07T00:26:37;101843.09;;;5.92;100.00
49216;BME280;45943;53.148;8.204;2023-12-07T00:29:03;101835.97;;;5.93;100.00
49216;BME280;45943;53.148;8.204;2023-12-07T00:31:29;101849.13;;;5.96;100.00
49216;BME280;45943;53.148;8.204;2023-12-07T00:33:55;101849.13;;;5.96;100.00
49216;BME280;45943;53.148;8.204;2023-12-07T00:36:21;101855.13;;;6.01;100.00
49216;BME280;45943;53.148;8.204;2023-12-07T00:38:47;101857.81;;;6.01;100.00
49216;BME280;45943;53.148;8.204;2023-12-07T00:41:13;101853.34;;;6.01;100.00
49216;BME280;45943;53.148;8.204;2023-12-07T00:43:39;101853.34;;;6.01;100.00
49216;BME280;45943;53.148;8.204;2023-12-07T00:46:08;101859.44;;;6.03;100.00
49216;BME280;45943;53.148;8.204;2023-12-07T00:48:34;101860.38;;;6.02;100.00
49216;BME280;45943;53.148;8.204;2023-12-07T00:51:00;101864.06;;;6.00;100.00
49216;BME280;45943;53.148;8.204;2023-12-07T00:53:26;101871.13;;;6.01;100.00
49216;BME280;45943;53.148;8.204;2023-12-07T00:55:52;101870.19;;;6.02;100.00
49216;BME280;45943;53.148;8.204;2023-12-07T00:58:18;101869.44;;;5.98;100.00
49216;BME280;45943;53.148;8.204;2023-12-07T01:00:44;101870.38;;;5.97;100.00
49216;BME280;45943;53.148;8.204;2023-12-07T01:03:10;101875.78;;;5.96;100.00
49216;BME280;45943;53.148;8.204;2023-12-07T01:05:36;101877.56;;;5.95;100.00
49216;BME280;45943;53.148;8.204;2023-12-07T01:08:02;101874.25;;;5.90;100.00
49216;BME280;45943;53.148;8.204;2023-12-07T01:10:29;101879.59;;;5.90;100.00
49216;BME280;45943;53.148;8.204;2023-12-07T01:12:54;101874.13;;;5.93;100.00
49216;BME280;45943;53.148;8.204;2023-12-07T01:15:20;101880.22;;;5.95;100.00
49216;BME280;45943;53.148;8.204;2023-12-07T01:17:46;101881.31;;;5.90;100.00
49216;BME280;45943;53.148;8.204;2023-12-07T01:20:12;101884.13;;;5.87;100.00
49216;BME280;45943;53.148;8.204;2023-12-07T01:22:39;101893.84;;;5.88;100.00
49216;BME280;45943;53.148;8.204;2023-12-07T01:25:07;101894.78;;;5.87;100.00
49216;BME280;45943;53.148;8.204;2023-12-07T01:27:34;101887.66;;;5.87;100.00
49216;BME280;45943;53.148;8.204;2023-12-07T01:30:00;101904.56;;;5.86;100.00
49216;BME280;45943;53.148;8.204;2023-12-07T01:32:26;101898.44;;;5.84;100.00
49216;BME280;45943;53.148;8.204;2023-12-07T01:34:53;101893.91;;;5.86;100.00
49216;BME280;45943;53.148;8.204;2023-12-07T01:37:19;101892.91;;;5.90;100.00
49216;BME280;45943;53.148;8.204;2023-12-07T01:39:45;101899.09;;;5.91;100.00
49216;BME280;45943;53.148;8.204;2023-12-07T01:42:11;101900.03;;;5.88;100.00
49216;BME280;45943;53.148;8.204;2023-12-07T01:44:38;101902.84;;;5.85;100.00
49216;BME280;45943;53.148;8.204;2023-12-07T01:47:05;101903.56;;;5.90;100.00
49216;BME280;45943;53.148;8.204;2023-12-07T01:49:34;101907.00;;;5.92;100.00
49216;BME280;45943;53.148;8.204;2023-12-07T01:52:01;101907.00;;;5.92;100.00
49216;BME280;45943;53.148;8.204;2023-12-07T01:54:28;101904.41;;;5.89;100.00
49216;BME280;45943;53.148;8.204;2023-12-07T01:56:55;101914.06;;;5.93;100.00
49216;BME280;45943;53.148;8.204;2023-12-07T01:59:22;101905.22;;;5.93;100.00
49216;BME280;45943;53.148;8.204;2023-12-07T02:01:48;101903.41;;;5.93;100.00
49216;BME280;45943;53.148;8.204;2023-12-07T02:04:14;101908.72;;;5.93;100.00
49216;BME280;45943;53.148;8.204;2023-12-07T02:06:41;101899.97;;;5.91;100.00
49216;BME280;45943;53.148;8.204;2023-12-07T02:09:07;101908.72;;;5.93;100.00
49216;BME280;45943;53.148;8.204;2023-12-07T02:11:33;101902.53;;;5.93;100.00
49216;BME280;45943;53.148;8.204;2023-12-07T02:13:59;101902.41;;;5.96;100.00
49216;BME280;45943;53.148;8.204;2023-12-07T02:16:28;101914.72;;;5.98;100.00
49216;BME280;45943;53.148;8.204;2023-12-07T02:19:12;101905.84;;;5.98;100.00
49216;BME280;45943;53.148;8.204;2023-12-07T02:22:02;101902.25;;;5.99;100.00
49216;BME280;45943;53.148;8.204;2023-12-07T02:24:33;101910.19;;;6.00;100.00
49216;BME280;45943;53.148;8.204;2023-12-07T02:27:01;101910.25;;;5.99;100.00
49216;BME280;45943;53.148;8.204;2023-12-07T02:29:27;101904.00;;;6.00;100.00
49216;BME280;45943;53.148;8.204;2023-12-07T02:31:53;101911.94;;;6.01;100.00
49216;BME280;45943;53.148;8.204;2023-12-07T02:34:19;101910.06;;;6.03;100.00
49216;BME280;45943;53.148;8.204;2023-12-07T02:36:45;101907.53;;;6.00;100.00
49216;BME280;45943;53.148;8.204;2023-12-07T02:39:14;101906.69;;;6.00;100.00
49216;BME280;45943;53.148;8.204;2023-12-07T02:41:40;101905.66;;;6.02;100.00
49216;BME280;45943;53.148;8.204;2023-12-07T02:44:07;101907.41;;;6.03;100.00
49216;BME280;45943;53.148;8.204;2023-12-07T02:46:33;101902.84;;;6.06;100.00
49216;BME280;45943;53.148;8.204;2023-12-07T02:49:00;101905.53;;;6.06;100.00
49216;BME280;45943;53.148;8.204;2023-12-07T02:51:26;101908.97;;;6.08;100.00
49216;BME280;45943;53.148;8.204;2023-12-07T02:53:52;101910.69;;;6.09;100.00
49216;BME280;45943;53.148;8.204;2023-12-07T02:56:18;101920.56;;;6.07;100.00
49216;BME280;45943;53.148;8.204;2023-12-07T02:58:44;101925.25;;;6.01;100.00
49216;BME280;45943;53.148;8.204;2023-12-07T03:01:10;101919.84;;;6.03;100.00
49216;BME280;45943;53.148;8.204;2023-12-07T03:03:36;101925.97;;;6.05;100.00
49216;BME280;45943;53.148;8.204;2023-12-07T03:06:04;101923.22;;;6.07;100.00
49216;BME280;45943;53.148;8.204;2023-12-07T03:08:30;101921.66;;;6.02;100.00
49216;BME280;45943;53.148;8.204;2023-12-07T03:10:56;101927.03;;;6.01;100.00
49216;BME280;45943;53.148;8.204;2023-12-07T03:13:22;101927.84;;;6.03;100.00
49216;BME280;45943;53.148;8.204;2023-12-07T03:15:48;101928.84;;;6.00;100.00
49216;BME280;45943;53.148;8.204;2023-12-07T03:18:14;101935.16;;;5.98;100.00
49216;BME280;45943;53.148;8.204;2023-12-07T03:20:40;101935.44;;;5.92;100.00
49216;BME280;45943;53.148;8.204;2023-12-07T03:23:07;101927.53;;;5.90;100.00
49216;BME280;45943;53.148;8.204;2023-12-07T03:25:33;101931.75;;;5.94;100.00
49216;BME280;45943;53.148;8.204;2023-12-07T03:27:59;101937.88;;;5.96;100.00
49216;BME280;45943;53.148;8.204;2023-12-07T03:30:25;101932.63;;;5.95;100.00
49216;BME280;45943;53.148;8.204;2023-12-07T03:32:50;101933.50;;;5.95;100.00
49216;BME280;45943;53.148;8.204;2023-12-07T03:35:16;101939.59;;;5.97;100.00
49216;BME280;45943;53.148;8.204;2023-12-07T03:37:42;101929.03;;;5.96;100.00
49216;BME280;45943;53.148;8.204;2023-12-07T03:40:09;101935.22;;;5.96;100.00
49216;BME280;45943;53.148;8.204;2023-12-07T03:42:35;101937.03;;;5.96;100.00
49216;BME280;45943;53.148;8.204;2023-12-07T03:45:01;101938.63;;;6.00;100.00
49216;BME280;45943;53.148;8.204;2023-12-07T03:47:27;101932.47;;;5.98;100.00
49216;BME280;45943;53.148;8.204;2023-12-07T03:49:53;101932.63;;;5.95;100.00
49216;BME280;45943;53.148;8.204;2023-12-07T03:52:19;101932.91;;;5.87;100.00
49216;BME280;45943;53.148;8.204;2023-12-07T03:54:45;101933.13;;;5.83;100.00
49216;BME280;45943;53.148;8.204;2023-12-07T03:57:11;101934.88;;;5.84;100.00
49216;BME280;45943;53.148;8.204;2023-12-07T03:59:37;101943.50;;;5.90;100.00
49216;BME280;45943;53.148;8.204;2023-12-07T04:02:03;101941.63;;;5.92;100.00
49216;BME280;45943;53.148;8.204;2023-12-07T04:04:29;101939.75;;;5.94;100.00
49216;BME280;45943;53.148;8.204;2023-12-07T04:06:55;101938.66;;;5.98;100.00
49216;BME280;45943;53.148;8.204;2023-12-07T04:09:21;101939.53;;;5.99;100.00
49216;BME280;45943;53.148;8.204;2023-12-07T04:11:46;101949.31;;;5.98;100.00
49216;BME280;45943;53.148;8.204;2023-12-07T04:14:12;101948.38;;;5.99;100.00
49216;BME280;45943;53.148;8.204;2023-12-07T04:16:38;101943.13;;;5.98;100.00
49216;BME280;45943;53.148;8.204;2023-12-07T04:19:04;101949.28;;;6.00;100.00
49216;BME280;45943;53.148;8.204;2023-12-07T04:21:30;101945.88;;;5.96;100.00
49216;BME280;45943;53.148;8.204;2023-12-07T04:23:56;101949.47;;;5.95;100.00
49216;BME280;45943;53.148;8.204;2023-12-07T04:26:23;101950.25;;;5.97;100.00
49216;BME280;45943;53.148;8.204;2023-12-07T04:28:49;101946.81;;;5.95;100.00
49216;BME280;45943;53.148;8.204;2023-12-07T04:31:15;101942.56;;;5.90;100.00
49216;BME280;45943;53.148;8.204;2023-12-07T04:33:41;101942.72;;;5.87;100.00
49216;BME280;45943;53.148;8.204;2023-12-07T04:36:07;101939.97;;;5.88;100.00
49216;BME280;45943;53.148;8.204;2023-12-07T04:38:33;101948.75;;;5.92;100.00
49216;BME280;45943;53.148;8.204;2023-12-07T04:40:59;101948.59;;;5.95;100.00
49216;BME280;45943;53.148;8.204;2023-12-07T04:43:25;101947.75;;;5.94;100.00
49216;BME280;45943;53.148;8.204;2023-12-07T04:45:51;101946.00;;;5.93;100.00
49216;BME280;45943;53.148;8.204;2023-12-07T04:48:17;101939.97;;;5.88;100.00
49216;BME280;45943;53.148;8.204;2023-12-07T04:50:43;101946.09;;;5.92;100.00
49216;BME280;45943;53.148;8.204;2023-12-07T04:53:09;101940.84;;;5.90;100.00
49216;BME280;45943;53.148;8.204;2023-12-07T04:55:35;101947.03;;;5.91;100.00
49216;BME280;45943;53.148;8.204;2023-12-07T04:58:01;101948.75;;;5.92;100.00
49216;BME280;45943;53.148;8.204;2023-12-07T05:00:27;101956.59;;;5.95;100.00
49216;BME280;45943;53.148;8.204;2023-12-07T05:02:53;101953.94;;;5.95;100.00
49216;BME280;45943;53.148;8.204;2023-12-07T05:05:19;101955.66;;;5.96;100.00
49216;BME280;45943;53.148;8.204;2023-12-07T05:07:45;101960.91;;;5.97;100.00
49216;BME280;45943;53.148;8.204;2023-12-07T05:10:11;101969.84;;;5.96;100.00
49216;BME280;45943;53.148;8.204;2023-12-07T05:12:37;101972.56;;;5.95;100.00
49216;BME280;45943;53.148;8.204;2023-12-07T05:15:04;101963.72;;;5.94;100.00
49216;BME280;45943;53.148;8.204;2023-12-07T05:17:31;101961.91;;;5.95;100.00
49216;BME280;45943;53.148;8.204;2023-12-07T05:19:57;101980.41;;;5.98;100.00
49216;BME280;45943;53.148;8.204;2023-12-07T05:22:23;101975.03;;;5.99;100.00
49216;BME280;45943;53.148;8.204;2023-12-07T05:24:49;101970.78;;;5.95;100.00
49216;BME280;45943;53.148;8.204;2023-12-07T05:27:16;101974.53;;;5.90;100.00
49216;BME280;45943;53.148;8.204;2023-12-07T05:29:41;101968.31;;;5.89;100.00
49216;BME280;45943;53.148;8.204;2023-12-07T05:32:08;101977.19;;;5.90;100.00
49216;BME280;45943;53.148;8.204;2023-12-07T05:34:34;101972.66;;;5.93;100.00
49216;BME280;45943;53.148;8.204;2023-12-07T05:37:01;101963.78;;;5.93;100.00
49216;BME280;45943;53.148;8.204;2023-12-07T05:39:27;101967.47;;;5.89;100.00
49216;BME280;45943;53.148;8.204;2023-12-07T05:41:53;101964.78;;;5.90;100.00
49216;BME280;45943;53.148;8.204;2023-12-07T05:44:19;101960.34;;;5.91;100.00
49216;BME280;45943;53.148;8.204;2023-12-07T05:46:47;101958.53;;;5.90;100.00
49216;BME280;45943;53.148;8.204;2023-12-07T05:49:14;101962.00;;;5.93;100.00
49216;BME280;45943;53.148;8.204;2023-12-07T05:51:40;101968.03;;;5.97;100.00
49216;BME280;45943;53.148;8.204;2023-12-07T05:54:06;101968.03;;;5.97;100.00
49216;BME280;45943;53.148;8.204;2023-12-07T05:56:32;101970.69;;;5.97;100.00
49216;BME280;45943;53.148;8.204;2023-12-07T05:58:57;101968.03;;;5.97;100.00
49216;BME280;45943;53.148;8.204;2023-12-07T06:01:23;101962.66;;;5.98;100.00
49216;BME280;45943;53.148;8.204;2023-12-07T06:03:50;101971.38;;;6.02;100.00
49216;BME280;45943;53.148;8.204;2023-12-07T06:06:16;101968.72;;;6.02;100.00
49216;BME280;45943;53.148;8.204;2023-12-07T06:08:42;101972.25;;;6.02;100.00
49216;BME280;45943;53.148;8.204;2023-12-07T06:11:08;101972.31;;;6.01;100.00
49216;BME280;45943;53.148;8.204;2023-12-07T06:13:34;101969.59;;;6.02;100.00
49216;BME280;45943;53.148;8.204;2023-12-07T06:16:00;101980.31;;;6.01;100.00
49216;BME280;45943;53.148;8.204;2023-12-07T06:18:28;101976.81;;;5.99;100.00
49216;BME280;45943;53.148;8.204;2023-12-07T06:20:54;101984.03;;;5.97;100.00
49216;BME280;45943;53.148;8.204;2023-12-07T06:23:21;101978.69;;;5.97;100.00
49216;BME280;45943;53.148;8.204;2023-12-07T06:25:47;101981.44;;;5.95;100.00
49216;BME280;45943;53.148;8.204;2023-12-07T06:28:13;101971.78;;;5.93;100.00
49216;BME280;45943;53.148;8.204;2023-12-07T06:30:39;101973.59;;;5.92;100.00
49216;BME280;45943;53.148;8.204;2023-12-07T06:33:05;101970.84;;;5.94;100.00
49216;BME280;45943;53.148;8.204;2023-12-07T06:35:32;101974.31;;;5.96;100.00
49216;BME280;45943;53.148;8.204;2023-12-07T06:37:58;101971.47;;;6.00;100.00
49216;BME280;45943;53.148;8.204;2023-12-07T06:40:24;101972.25;;;6.02;100.00
49216;BME280;45943;53.148;8.204;2023-12-07T06:42:50;101969.78;;;5.98;100.00
49216;BME280;45943;53.148;8.204;2023-12-07T06:45:16;101976.31;;;5.91;100.00
49216;BME280;45943;53.148;8.204;2023-12-07T06:47:42;101974.44;;;5.93;100.00
49216;BME280;45943;53.148;8.204;2023-12-07T06:50:08;101974.38;;;5.94;100.00
49216;BME280;45943;53.148;8.204;2023-12-07T06:52:38;101984.97;;;5.96;100.00
49216;BME280;45943;53.148;8.204;2023-12-07T06:55:05;101978.75;;;5.95;100.00
49216;BME280;45943;53.148;8.204;2023-12-07T06:57:32;101974.66;;;5.87;100.00
49216;BME280;45943;53.148;8.204;2023-12-07T06:59:59;101982.06;;;5.80;100.00
49216;BME280;45943;53.148;8.204;2023-12-07T07:02:25;101982.09;;;5.79;100.00
49216;BME280;45943;53.148;8.204;2023-12-07T07:04:51;101979.59;;;5.75;100.00
49216;BME280;45943;53.148;8.204;2023-12-07T07:07:17;101979.81;;;5.69;100.00
49216;BME280;45943;53.148;8.204;2023-12-07T07:09:43;101992.16;;;5.72;100.00
49216;BME280;45943;53.148;8.204;2023-12-07T07:12:09;101988.44;;;5.76;100.00
49216;BME280;45943;53.148;8.204;2023-12-07T07:14:36;101988.50;;;5.74;100.00
49216;BME280;45943;53.148;8.204;2023-12-07T07:17:02;101993.09;;;5.71;100.00
49216;BME280;45943;53.148;8.204;2023-12-07T07:19:30;102001.81;;;5.74;100.00
49216;BME280;45943;53.148;8.204;2023-12-07T07:21:56;101998.03;;;5.80;100.00
49216;BME280;45943;53.148;8.204;2023-12-07T07:24:25;101998.69;;;5.85;100.00
49216;BME280;45943;53.148;8.204;2023-12-07T07:26:51;102005.69;;;5.88;100.00
49216;BME280;45943;53.148;8.204;2023-12-07T07:29:17;102005.09;;;5.81;100.00
49216;BME280;45943;53.148;8.204;2023-12-07T07:31:43;102013.09;;;5.81;100.00
49216;BME280;45943;53.148;8.204;2023-12-07T07:34:09;102010.28;;;5.84;100.00
49216;BME280;45943;53.148;8.204;2023-12-07T07:36:39;102014.13;;;5.77;100.00
49216;BME280;45943;53.148;8.204;2023-12-07T07:39:04;102011.75;;;5.71;100.00
49216;BME280;45943;53.148;8.204;2023-12-07T07:41:34;102017.06;;;5.71;100.00
49216;BME280;45943;53.148;8.204;2023-12-07T07:44:00;102023.91;;;5.76;100.00
49216;BME280;45943;53.148;8.204;2023-12-07T07:46:27;102026.50;;;5.78;100.00
49216;BME280;45943;53.148;8.204;2023-12-07T07:48:53;102026.44;;;5.80;100.00
49216;BME280;45943;53.148;8.204;2023-12-07T07:51:19;102022.09;;;5.77;100.00
49216;BME280;45943;53.148;8.204;2023-12-07T07:53:45;102023.19;;;5.73;100.00
49216;BME280;45943;53.148;8.204;2023-12-07T07:56:11;102024.97;;;5.72;100.00
49216;BME280;45943;53.148;8.204;2023-12-07T07:58:36;102031.03;;;5.76;100.00
49216;BME280;45943;53.148;8.204;2023-12-07T08:01:03;102025.41;;;5.84;100.00
49216;BME280;45943;53.148;8.204;2023-12-07T08:03:29;102028.72;;;5.89;100.00
49216;BME280;45943;53.148;8.204;2023-12-07T08:05:55;102026.91;;;5.91;100.00
49216;BME280;45943;53.148;8.204;2023-12-07T08:08:21;102028.78;;;5.87;100.00
49216;BME280;45943;53.148;8.204;2023-12-07T08:10:47;102028.78;;;5.87;100.00
49216;BME280;45943;53.148;8.204;2023-12-07T08:13:13;102030.50;;;5.88;100.00
49216;BME280;45943;53.148;8.204;2023-12-07T08:15:39;102027.78;;;5.90;100.00
49216;BME280;45943;53.148;8.204;2023-12-07T08:18:05;102029.00;;;5.83;100.00
49216;BME280;45943;53.148;8.204;2023-12-07T08:20:32;102021.19;;;5.78;100.00
49216;BME280;45943;53.148;8.204;2023-12-07T08:22:58;102019.34;;;5.80;100.00
49216;BME280;45943;53.148;8.204;2023-12-07T08:25:25;102023.03;;;5.76;100.00
49216;BME280;45943;53.148;8.204;2023-12-07T08:27:51;102023.84;;;5.78;100.00
49216;BME280;45943;53.148;8.204;2023-12-07T08:30:17;102035.09;;;5.85;100.00
49216;BME280;45943;53.148;8.204;2023-12-07T08:32:44;102037.56;;;5.89;100.00
49216;BME280;45943;53.148;8.204;2023-12-07T08:35:10;102033.97;;;5.92;100.00
49216;BME280;45943;53.148;8.204;2023-12-07T08:37:37;102029.38;;;5.95;100.00
49216;BME280;45943;53.148;8.204;2023-12-07T08:40:04;102033.69;;;5.98;100.00
49216;BME280;45943;53.148;8.204;2023-12-07T08:42:31;102044.28;;;5.99;100.00
49216;BME280;45943;53.148;8.204;2023-12-07T08:44:57;102043.38;;;6.00;100.00
49216;BME280;45943;53.148;8.204;2023-12-07T08:47:23;102039.09;;;5.96;100.00
49216;BME280;45943;53.148;8.204;2023-12-07T08:49:53;102046.13;;;5.97;100.00
49216;BME280;45943;53.148;8.204;2023-12-07T08:52:19;102051.28;;;6.02;100.00
49216;BME280;45943;53.148;8.204;2023-12-07T08:54:45;102043.16;;;6.05;100.00
49216;BME280;45943;53.148;8.204;2023-12-07T08:57:11;102048.31;;;6.10;100.00
49216;BME280;45943;53.148;8.204;2023-12-07T08:59:37;102045.88;;;6.03;100.00
49216;BME280;45943;53.148;8.204;2023-12-07T09:02:03;102046.81;;;6.02;100.00
49216;BME280;45943;53.148;8.204;2023-12-07T09:04:29;102048.72;;;5.99;100.00
49216;BME280;45943;53.148;8.204;2023-12-07T09:06:55;102042.69;;;5.95;100.00
49216;BME280;45943;53.148;8.204;2023-12-07T09:09:21;102040.75;;;5.99;100.00
49216;BME280;45943;53.148;8.204;2023-12-07T09:11:49;102037.28;;;5.97;100.00
49216;BME280;45943;53.148;8.204;2023-12-07T09:14:15;102042.50;;;6.00;100.00
49216;BME280;45943;53.148;8.204;2023-12-07T09:16:44;102042.44;;;6.01;100.00
49216;BME280;45943;53.148;8.204;2023-12-07T09:19:14;102037.19;;;6.00;100.00
49216;BME280;45943;53.148;8.204;2023-12-07T09:21:40;102047.84;;;6.00;100.00
49216;BME280;45943;53.148;8.204;2023-12-07T09:24:06;102051.47;;;5.97;100.00
49216;BME280;45943;53.148;8.204;2023-12-07T09:26:32;102052.41;;;5.96;100.00
49216;BME280;45943;53.148;8.204;2023-12-07T09:28:59;102048.63;;;6.02;100.00
49216;BME280;45943;53.148;8.204;2023-12-07T09:31:25;102051.28;;;6.02;100.00
49216;BME280;45943;53.148;8.204;2023-12-07T09:33:51;102050.00;;;5.89;100.00
49216;BME280;45943;53.148;8.204;2023-12-07T09:36:19;102049.28;;;5.85;100.00
49216;BME280;45943;53.148;8.204;2023-12-07T09:38:47;102052.53;;;5.93;100.00
49216;BME280;45943;53.148;8.204;2023-12-07T09:41:13;102049.56;;;6.01;100.00
49216;BME280;45943;53.148;8.204;2023-12-07T09:43:39;102053.75;;;6.07;100.00
49216;BME280;45943;53.148;8.204;2023-12-07T09:46:05;102054.44;;;6.12;100.00
49216;BME280;45943;53.148;8.204;2023-12-07T09:48:32;102053.50;;;6.13;100.00
49216;BME280;45943;53.148;8.204;2023-12-07T09:50:59;102055.59;;;6.04;100.00
49216;BME280;45943;53.148;8.204;2023-12-07T09:53:27;102060.22;;;6.01;100.00
49216;BME280;45943;53.148;8.204;2023-12-07T09:55:54;102055.19;;;5.93;100.00
49216;BME280;45943;53.148;8.204;2023-12-07T09:58:21;102061.19;;;5.98;100.00
49216;BME280;45943;53.148;8.204;2023-12-07T10:00:47;102056.69;;;6.00;100.00
49216;BME280;45943;53.148;8.204;2023-12-07T10:03:20;102064.78;;;5.97;100.00
49216;BME280;45943;53.148;8.204;2023-12-07T10:05:57;102060.38;;;5.96;100.00
49216;BME280;45943;53.148;8.204;2023-12-07T10:08:26;102062.19;;;5.96;100.00
49216;BME280;45943;53.148;8.204;2023-12-07T10:11:01;102054.41;;;5.90;100.00
49216;BME280;45943;53.148;8.204;2023-12-07T10:13:32;102052.88;;;5.84;100.00
49216;BME280;45943;53.148;8.204;2023-12-07T10:16:05;102043.81;;;5.88;100.00
49216;BME280;45943;53.148;8.204;2023-12-07T10:18:40;102044.69;;;5.90;100.00
49216;BME280;45943;53.148;8.204;2023-12-07T10:21:07;102045.56;;;5.91;100.00
49216;BME280;45943;53.148;8.204;2023-12-07T10:23:37;102049.59;;;5.99;100.00
49216;BME280;45943;53.148;8.204;2023-12-07T10:26:05;102050.16;;;6.08;100.00
49216;BME280;45943;53.148;8.204;2023-12-07T10:28:33;102047.09;;;6.17;100.00
49216;BME280;45943;53.148;8.204;2023-12-07T10:31:02;102045.13;;;6.22;100.00
49216;BME280;45943;53.148;8.204;2023-12-07T10:33:29;102042.63;;;6.17;100.00
49216;BME280;45943;53.148;8.204;2023-12-07T10:35:55;102039.25;;;6.14;100.00
49216;BME280;45943;53.148;8.204;2023-12-07T10:38:21;102039.31;;;6.12;100.00
49216;BME280;45943;53.148;8.204;2023-12-07T10:40:47;102046.44;;;6.12;100.00
49216;BME280;45943;53.148;8.204;2023-12-07T10:43:22;102027.78;;;6.12;100.00
49216;BME280;45943;53.148;8.204;2023-12-07T10:45:48;102024.19;;;6.13;100.00
49216;BME280;45943;53.148;8.204;2023-12-07T10:48:14;102028.72;;;6.11;100.00
49216;BME280;45943;53.148;8.204;2023-12-07T10:50:41;102035.00;;;6.10;100.00
49216;BME280;45943;53.148;8.204;2023-12-07T10:53:37;102033.78;;;6.17;100.00
49216;BME280;45943;53.148;8.204;2023-12-07T10:56:10;102029.19;;;6.20;100.00
49216;BME280;45943;53.148;8.204;2023-12-07T10:58:39;102032.66;;;6.22;100.00
49216;BME280;45943;53.148;8.204;2023-12-07T11:01:07;102036.03;;;6.26;100.00
49216;BME280;45943;53.148;8.204;2023-12-07T11:03:35;102033.22;;;6.29;100.00
49216;BME280;45943;53.148;8.204;2023-12-07T11:06:02;102026.16;;;6.28;100.00
49216;BME280;45943;53.148;8.204;2023-12-07T11:08:50;102025.13;;;6.32;100.00
49216;BME280;45943;53.148;8.204;2023-12-07T11:14:23;102018.06;;;6.31;100.00
49216;BME280;45943;53.148;8.204;2023-12-07T11:16:49;102021.66;;;6.30;100.00
49216;BME280;45943;53.148;8.204;2023-12-07T11:22:07;102003.72;;;6.33;100.00
49216;BME280;45943;53.148;8.204;2023-12-07T11:24:35;102004.44;;;6.37;100.00
49216;BME280;45943;53.148;8.204;2023-12-07T11:27:04;102006.41;;;6.33;100.00
49216;BME280;45943;53.148;8.204;2023-12-07T11:29:30;102005.47;;;6.35;100.00
49216;BME280;45943;53.148;8.204;2023-12-07T11:32:04;101995.53;;;6.38;100.00
49216;BME280;45943;53.148;8.204;2023-12-07T11:34:41;101992.28;;;6.31;100.00
49216;BME280;45943;53.148;8.204;2023-12-07T11:37:08;101992.00;;;6.38;100.00
49216;BME280;45943;53.148;8.204;2023-12-07T11:39:41;101991.72;;;6.44;100.00
49216;BME280;45943;53.148;8.204;2023-12-07T11:42:12;101980.28;;;6.42;100.00
49216;BME280;45943;53.148;8.204;2023-12-07T11:44:41;101974.19;;;6.38;100.00
49216;BME280;45943;53.148;8.204;2023-12-07T11:47:10;101972.41;;;6.39;100.00
49216;BME280;45943;53.148;8.204;2023-12-07T11:49:42;101978.63;;;6.39;100.00
49216;BME280;45943;53.148;8.204;2023-12-07T11:52:16;101975.97;;;6.39;100.00
49216;BME280;45943;53.148;8.204;2023-12-07T11:54:44;101987.25;;;6.44;100.00
49216;BME280;45943;53.148;8.204;2023-12-07T11:57:11;101981.84;;;6.46;100.00
49216;BME280;45943;53.148;8.204;2023-12-07T11:59:39;101982.72;;;6.46;100.00
49216;BME280;45943;53.148;8.204;2023-12-07T12:02:05;101982.59;;;6.49;100.00
49216;BME280;45943;53.148;8.204;2023-12-07T12:04:31;101980.72;;;6.51;100.00
49216;BME280;45943;53.148;8.204;2023-12-07T12:06:57;101983.09;;;6.57;100.00
49216;BME280;45943;53.148;8.204;2023-12-07T12:09:24;101980.72;;;6.51;100.00
49216;BME280;45943;53.148;8.204;2023-12-07T12:11:50;101966.47;;;6.52;100.00
49216;BME280;45943;53.148;8.204;2023-12-07T12:14:16;101965.59;;;6.52;100.00
49216;BME280;45943;53.148;8.204;2023-12-07T12:16:43;101974.38;;;6.54;100.00
49216;BME280;45943;53.148;8.204;2023-12-07T12:19:10;101970.59;;;6.59;100.00
49216;BME280;45943;53.148;8.204;2023-12-07T12:21:37;101969.84;;;6.56;100.00
49216;BME280;45943;53.148;8.204;2023-12-07T12:24:06;101965.09;;;6.63;100.00
49216;BME280;45943;53.148;8.204;2023-12-07T12:26:33;101966.69;;;6.67;100.00
49216;BME280;45943;53.148;8.204;2023-12-07T12:29:01;101973.53;;;6.72;100.00
49216;BME280;45943;53.148;8.204;2023-12-07T12:31:27;101980.88;;;6.67;100.00
49216;BME280;45943;53.148;8.204;2023-12-07T12:33:54;101968.78;;;6.60;100.00
49216;BME280;45943;53.148;8.204;2023-12-07T12:36:20;101975.09;;;6.57;100.00
49216;BME280;45943;53.148;8.204;2023-12-07T12:38:52;101971.22;;;6.65;100.00
49216;BME280;45943;53.148;8.204;2023-12-07T12:41:19;101972.88;;;6.67;100.00
49216;BME280;45943;53.148;8.204;2023-12-07T12:43:46;101969.50;;;6.64;100.00
49216;BME280;45943;53.148;8.204;2023-12-07T12:46:13;101961.34;;;6.67;100.00
49216;BME280;45943;53.148;8.204;2023-12-07T12:48:52;101967.69;;;6.64;100.00
49216;BME280;45943;53.148;8.204;2023-12-07T12:51:27;101953.78;;;6.76;100.00
49216;BME280;45943;53.148;8.204;2023-12-07T12:53:57;101961.28;;;7.06;100.00
49216;BME280;45943;53.148;8.204;2023-12-07T12:56:25;101953.38;;;7.40;100.00